sensor_id;sensor_type;location;lat;lon;timestamp;pressure;altitude;pressure_sealevel;temperature;humidity
41886;BME280;27567;43.084;25.616;2022-10-26T00:02:37;98536.47;;;15.08;100.00
41886;BME280;27567;43.084;25.616;2022-10-26T00:05:22;98534.13;;;14.93;100.00
41886;BME280;27567;43.084;25.616;2022-10-26T00:08:06;98541.19;;;14.94;100.00
41886;BME280;27567;43.084;25.616;2022-10-26T00:10:51;98551.84;;;14.89;100.00
41886;BME280;27567;43.084;25.616;2022-10-26T00:13:35;98559.16;;;14.82;100.00
41886;BME280;27567;43.084;25.616;2022-10-26T00:16:24;98562.38;;;14.72;100.00
41886;BME280;27567;43.084;25.616;2022-10-26T00:19:09;98552.44;;;14.91;100.00
41886;BME280;27567;43.084;25.616;2022-10-26T00:21:53;98539.47;;;15.00;100.00
41886;BME280;27567;43.084;25.616;2022-10-26T00:24:37;98536.31;;;15.03;100.00
41886;BME280;27567;43.084;25.616;2022-10-26T00:27:21;98524.31;;;14.99;100.00
41886;BME280;27567;43.084;25.616;2022-10-26T00:30:06;98531.97;;;15.02;100.00
41886;BME280;27567;43.084;25.616;2022-10-26T00:32:50;98536.97;;;15.17;100.00
41886;BME280;27567;43.084;25.616;2022-10-26T00:35:34;98533.75;;;15.27;100.00
41886;BME280;27567;43.084;25.616;2022-10-26T00:38:18;98543.03;;;15.31;100.00
41886;BME280;27567;43.084;25.616;2022-10-26T00:41:02;98541.75;;;15.33;100.00
41886;BME280;27567;43.084;25.616;2022-10-26T00:43:47;98549.13;;;15.26;100.00
41886;BME280;27567;43.084;25.616;2022-10-26T00:46:34;98556.25;;;15.21;100.00
41886;BME280;27567;43.084;25.616;2022-10-26T00:49:19;98549.59;;;15.05;100.00
41886;BME280;27567;43.084;25.616;2022-10-26T00:52:05;98554.84;;;14.99;100.00
41886;BME280;27567;43.084;25.616;2022-10-26T00:54:50;98551.06;;;14.82;100.00
41886;BME280;27567;43.084;25.616;2022-10-26T00:57:36;98556.78;;;14.73;100.00
41886;BME280;27567;43.084;25.616;2022-10-26T01:00:21;98556.34;;;14.77;100.00
41886;BME280;27567;43.084;25.616;2022-10-26T01:03:06;98563.09;;;14.61;100.00
41886;BME280;27567;43.084;25.616;2022-10-26T01:05:54;98552.78;;;14.76;100.00
41886;BME280;27567;43.084;25.616;2022-10-26T01:08:41;98551.47;;;14.60;100.00
41886;BME280;27567;43.084;25.616;2022-10-26T01:11:25;98552.16;;;14.55;100.00
41886;BME280;27567;43.084;25.616;2022-10-26T01:14:11;98555.34;;;14.46;100.00
41886;BME280;27567;43.084;25.616;2022-10-26T01:20:30;98556.47;;;14.38;100.00
41886;BME280;27567;43.084;25.616;2022-10-26T01:32:46;98567.78;;;14.47;100.00
41886;BME280;27567;43.084;25.616;2022-10-26T01:41:39;98574.19;;;13.95;100.00
41886;BME280;27567;43.084;25.616;2022-10-26T01:44:35;98576.28;;;13.93;100.00
41886;BME280;27567;43.084;25.616;2022-10-26T01:47:25;98579.53;;;14.02;100.00
41886;BME280;27567;43.084;25.616;2022-10-26T01:50:11;98578.06;;;14.06;100.00
41886;BME280;27567;43.084;25.616;2022-10-26T01:52:55;98586.34;;;14.11;100.00
41886;BME280;27567;43.084;25.616;2022-10-26T01:55:44;98579.91;;;14.12;100.00
41886;BME280;27567;43.084;25.616;2022-10-26T02:13:37;98579.41;;;13.90;100.00
41886;BME280;27567;43.084;25.616;2022-10-26T02:19:57;98588.16;;;13.85;100.00
41886;BME280;27567;43.084;25.616;2022-10-26T02:22:49;98598.16;;;13.78;100.00
41886;BME280;27567;43.084;25.616;2022-10-26T02:28:21;98597.56;;;13.69;100.00
41886;BME280;27567;43.084;25.616;2022-10-26T02:31:07;98594.69;;;13.64;100.00
41886;BME280;27567;43.084;25.616;2022-10-26T02:33:54;98596.56;;;13.63;100.00
41886;BME280;27567;43.084;25.616;2022-10-26T02:36:42;98583.75;;;13.52;100.00
41886;BME280;27567;43.084;25.616;2022-10-26T02:39:28;98584.84;;;13.44;100.00
41886;BME280;27567;43.084;25.616;2022-10-26T02:42:17;98590.22;;;13.44;100.00
41886;BME280;27567;43.084;25.616;2022-10-26T02:45:05;98580.03;;;13.53;100.00
41886;BME280;27567;43.084;25.616;2022-10-26T02:47:53;98581.50;;;13.49;100.00
41886;BME280;27567;43.084;25.616;2022-10-26T02:53:52;98591.88;;;13.38;100.00
41886;BME280;27567;43.084;25.616;2022-10-26T02:57:00;98593.34;;;13.34;100.00
41886;BME280;27567;43.084;25.616;2022-10-26T02:59:49;98600.81;;;13.46;100.00
41886;BME280;27567;43.084;25.616;2022-10-26T03:02:34;98602.44;;;13.40;100.00
41886;BME280;27567;43.084;25.616;2022-10-26T03:05:26;98610.13;;;13.36;100.00
41886;BME280;27567;43.084;25.616;2022-10-26T03:08:10;98604.31;;;13.40;100.00
41886;BME280;27567;43.084;25.616;2022-10-26T03:10:54;98600.38;;;13.35;100.00
41886;BME280;27567;43.084;25.616;2022-10-26T03:13:38;98616.13;;;13.38;100.00
41886;BME280;27567;43.084;25.616;2022-10-26T03:16:22;98615.94;;;13.33;100.00
41886;BME280;27567;43.084;25.616;2022-10-26T03:19:06;98625.28;;;13.31;100.00
41886;BME280;27567;43.084;25.616;2022-10-26T03:21:50;98630.25;;;13.34;100.00
41886;BME280;27567;43.084;25.616;2022-10-26T03:24:34;98625.06;;;13.26;100.00
41886;BME280;27567;43.084;25.616;2022-10-26T03:27:18;98629.66;;;13.18;100.00
41886;BME280;27567;43.084;25.616;2022-10-26T03:30:02;98626.56;;;13.15;100.00
41886;BME280;27567;43.084;25.616;2022-10-26T03:32:47;98623.25;;;13.13;100.00
41886;BME280;27567;43.084;25.616;2022-10-26T03:35:31;98625.97;;;13.06;100.00
41886;BME280;27567;43.084;25.616;2022-10-26T03:38:15;98616.84;;;13.00;100.00
41886;BME280;27567;43.084;25.616;2022-10-26T03:40:58;98614.16;;;13.00;100.00
41886;BME280;27567;43.084;25.616;2022-10-26T03:43:43;98615.41;;;12.98;100.00
41886;BME280;27567;43.084;25.616;2022-10-26T03:46:27;98618.75;;;12.93;100.00
41886;BME280;27567;43.084;25.616;2022-10-26T03:49:12;98615.63;;;12.89;100.00
41886;BME280;27567;43.084;25.616;2022-10-26T03:51:56;98630.28;;;13.14;100.00
41886;BME280;27567;43.084;25.616;2022-10-26T03:54:40;98622.84;;;13.09;100.00
41886;BME280;27567;43.084;25.616;2022-10-26T03:57:24;98627.19;;;13.10;100.00
41886;BME280;27567;43.084;25.616;2022-10-26T04:00:13;98630.31;;;13.07;100.00
41886;BME280;27567;43.084;25.616;2022-10-26T04:02:59;98632.81;;;13.02;100.00
41886;BME280;27567;43.084;25.616;2022-10-26T04:05:43;98628.00;;;13.17;100.00
41886;BME280;27567;43.084;25.616;2022-10-26T04:08:27;98626.53;;;13.21;100.00
41886;BME280;27567;43.084;25.616;2022-10-26T04:11:11;98631.75;;;13.10;100.00
41886;BME280;27567;43.084;25.616;2022-10-26T04:13:55;98633.84;;;13.01;100.00
41886;BME280;27567;43.084;25.616;2022-10-26T04:16:42;98633.41;;;13.04;100.00
41886;BME280;27567;43.084;25.616;2022-10-26T04:19:26;98634.44;;;13.03;100.00
41886;BME280;27567;43.084;25.616;2022-10-26T04:22:10;98635.69;;;13.07;100.00
41886;BME280;27567;43.084;25.616;2022-10-26T04:24:54;98636.13;;;12.97;100.00
41886;BME280;27567;43.084;25.616;2022-10-26T04:27:38;98638.63;;;12.92;100.00
41886;BME280;27567;43.084;25.616;2022-10-26T04:30:23;98642.75;;;12.88;100.00
41886;BME280;27567;43.084;25.616;2022-10-26T04:33:07;98653.94;;;12.65;100.00
41886;BME280;27567;43.084;25.616;2022-10-26T04:35:51;98660.56;;;12.48;100.00
41886;BME280;27567;43.084;25.616;2022-10-26T04:38:35;98665.13;;;12.35;100.00
41886;BME280;27567;43.084;25.616;2022-10-26T04:41:19;98666.31;;;12.12;100.00
41886;BME280;27567;43.084;25.616;2022-10-26T04:44:03;98665.81;;;11.88;100.00
41886;BME280;27567;43.084;25.616;2022-10-26T04:46:47;98679.13;;;12.03;100.00
41886;BME280;27567;43.084;25.616;2022-10-26T04:49:31;98671.13;;;12.37;100.00
41886;BME280;27567;43.084;25.616;2022-10-26T04:52:15;98673.00;;;12.50;100.00
41886;BME280;27567;43.084;25.616;2022-10-26T04:54:59;98668.84;;;12.60;100.00
41886;BME280;27567;43.084;25.616;2022-10-26T04:57:44;98676.06;;;12.67;100.00
41886;BME280;27567;43.084;25.616;2022-10-26T05:00:29;98682.69;;;12.44;100.00
41886;BME280;27567;43.084;25.616;2022-10-26T05:03:15;98690.34;;;12.27;100.00
41886;BME280;27567;43.084;25.616;2022-10-26T05:05:59;98695.72;;;12.40;100.00
41886;BME280;27567;43.084;25.616;2022-10-26T05:08:43;98695.34;;;12.63;100.00
41886;BME280;27567;43.084;25.616;2022-10-26T05:11:26;98686.22;;;12.78;100.00
41886;BME280;27567;43.084;25.616;2022-10-26T05:14:10;98695.09;;;13.05;100.00
41886;BME280;27567;43.084;25.616;2022-10-26T05:16:55;98694.25;;;13.18;100.00
41886;BME280;27567;43.084;25.616;2022-10-26T05:19:40;98696.31;;;13.30;100.00
41886;BME280;27567;43.084;25.616;2022-10-26T05:22:25;98699.00;;;13.30;100.00
41886;BME280;27567;43.084;25.616;2022-10-26T05:25:09;98691.31;;;13.33;100.00
41886;BME280;27567;43.084;25.616;2022-10-26T05:27:57;98694.22;;;13.38;100.00
41886;BME280;27567;43.084;25.616;2022-10-26T05:30:43;98698.81;;;13.45;100.00
41886;BME280;27567;43.084;25.616;2022-10-26T05:33:27;98697.94;;;13.51;100.00
41886;BME280;27567;43.084;25.616;2022-10-26T05:36:11;98705.31;;;13.76;100.00
41886;BME280;27567;43.084;25.616;2022-10-26T05:38:58;98715.00;;;13.90;100.00
41886;BME280;27567;43.084;25.616;2022-10-26T05:41:42;98717.22;;;14.07;100.00
41886;BME280;27567;43.084;25.616;2022-10-26T05:44:26;98725.47;;;14.12;100.00
41886;BME280;27567;43.084;25.616;2022-10-26T05:47:10;98720.00;;;14.32;100.00
41886;BME280;27567;43.084;25.616;2022-10-26T05:49:54;98734.38;;;14.51;100.00
41886;BME280;27567;43.084;25.616;2022-10-26T05:52:43;98735.59;;;14.55;100.00
41886;BME280;27567;43.084;25.616;2022-10-26T05:55:28;98733.66;;;14.69;100.00
41886;BME280;27567;43.084;25.616;2022-10-26T05:58:13;98743.31;;;14.84;100.00
41886;BME280;27567;43.084;25.616;2022-10-26T06:04:13;98742.53;;;15.27;100.00
41886;BME280;27567;43.084;25.616;2022-10-26T06:07:00;98742.72;;;15.51;100.00
41886;BME280;27567;43.084;25.616;2022-10-26T06:09:45;98748.81;;;16.02;100.00
41886;BME280;27567;43.084;25.616;2022-10-26T06:12:29;98734.16;;;16.41;100.00
41886;BME280;27567;43.084;25.616;2022-10-26T06:15:18;98745.25;;;16.51;100.00
41886;BME280;27567;43.084;25.616;2022-10-26T06:18:42;98758.69;;;16.58;100.00
41886;BME280;27567;43.084;25.616;2022-10-26T06:27:45;98754.19;;;16.21;100.00
41886;BME280;27567;43.084;25.616;2022-10-26T06:30:31;98757.06;;;16.26;100.00
41886;BME280;27567;43.084;25.616;2022-10-26T06:33:15;98763.22;;;16.15;100.00
41886;BME280;27567;43.084;25.616;2022-10-26T06:39:04;98760.25;;;16.35;100.00
41886;BME280;27567;43.084;25.616;2022-10-26T06:41:50;98757.81;;;16.15;100.00
41886;BME280;27567;43.084;25.616;2022-10-26T06:44:35;98758.41;;;16.35;100.00
41886;BME280;27567;43.084;25.616;2022-10-26T06:50:56;98773.94;;;16.40;100.00
41886;BME280;27567;43.084;25.616;2022-10-26T06:56:33;98776.63;;;16.71;100.00
41886;BME280;27567;43.084;25.616;2022-10-26T06:59:39;98772.88;;;16.83;100.00
41886;BME280;27567;43.084;25.616;2022-10-26T07:02:26;98781.81;;;16.72;100.00
41886;BME280;27567;43.084;25.616;2022-10-26T07:05:10;98780.25;;;16.64;100.00
41886;BME280;27567;43.084;25.616;2022-10-26T07:07:56;98787.91;;;17.10;100.00
41886;BME280;27567;43.084;25.616;2022-10-26T07:10:40;98781.69;;;17.09;100.00
41886;BME280;27567;43.084;25.616;2022-10-26T07:13:25;98780.91;;;17.33;100.00
41886;BME280;27567;43.084;25.616;2022-10-26T07:16:09;98777.34;;;17.44;100.00
41886;BME280;27567;43.084;25.616;2022-10-26T07:18:53;98772.06;;;17.37;100.00
41886;BME280;27567;43.084;25.616;2022-10-26T07:21:37;98774.97;;;17.36;100.00
41886;BME280;27567;43.084;25.616;2022-10-26T07:24:21;98769.94;;;17.51;100.00
41886;BME280;27567;43.084;25.616;2022-10-26T07:27:06;98769.56;;;17.60;100.00
41886;BME280;27567;43.084;25.616;2022-10-26T07:29:50;98767.06;;;17.70;100.00
41886;BME280;27567;43.084;25.616;2022-10-26T07:32:34;98758.00;;;17.76;100.00
41886;BME280;27567;43.084;25.616;2022-10-26T07:35:18;98760.59;;;17.71;100.00
41886;BME280;27567;43.084;25.616;2022-10-26T07:38:02;98768.75;;;17.59;100.00
41886;BME280;27567;43.084;25.616;2022-10-26T07:40:47;98775.34;;;17.51;100.00
41886;BME280;27567;43.084;25.616;2022-10-26T07:43:33;98766.91;;;17.88;100.00
41886;BME280;27567;43.084;25.616;2022-10-26T07:46:17;98769.41;;;18.02;100.00
41886;BME280;27567;43.084;25.616;2022-10-26T07:49:01;98755.38;;;18.05;100.00
41886;BME280;27567;43.084;25.616;2022-10-26T07:51:45;98769.94;;;18.28;100.00
41886;BME280;27567;43.084;25.616;2022-10-26T07:54:29;98768.56;;;18.01;100.00
41886;BME280;27567;43.084;25.616;2022-10-26T07:57:15;98774.00;;;18.01;100.00
41886;BME280;27567;43.084;25.616;2022-10-26T07:59:59;98778.25;;;17.85;100.00
41886;BME280;27567;43.084;25.616;2022-10-26T08:02:43;98795.97;;;17.64;100.00
41886;BME280;27567;43.084;25.616;2022-10-26T08:05:27;98781.56;;;17.64;100.00
41886;BME280;27567;43.084;25.616;2022-10-26T08:08:11;98790.84;;;17.92;100.00
41886;BME280;27567;43.084;25.616;2022-10-26T08:10:56;98780.03;;;17.80;100.00
41886;BME280;27567;43.084;25.616;2022-10-26T08:13:40;98785.44;;;17.80;100.00
41886;BME280;27567;43.084;25.616;2022-10-26T08:16:24;98779.44;;;17.78;100.00
41886;BME280;27567;43.084;25.616;2022-10-26T08:19:08;98784.06;;;17.77;100.00
41886;BME280;27567;43.084;25.616;2022-10-26T08:21:51;98788.63;;;17.88;100.00
41886;BME280;27567;43.084;25.616;2022-10-26T08:24:35;98773.41;;;17.87;100.00
41886;BME280;27567;43.084;25.616;2022-10-26T08:27:19;98782.97;;;18.02;100.00
41886;BME280;27567;43.084;25.616;2022-10-26T08:30:03;98787.56;;;18.01;100.00
41886;BME280;27567;43.084;25.616;2022-10-26T08:32:48;98785.44;;;18.03;100.00
41886;BME280;27567;43.084;25.616;2022-10-26T08:35:33;98782.84;;;17.97;100.00
41886;BME280;27567;43.084;25.616;2022-10-26T08:38:17;98778.22;;;18.09;100.00
41886;BME280;27567;43.084;25.616;2022-10-26T08:41:06;98774.03;;;18.30;100.00
41886;BME280;27567;43.084;25.616;2022-10-26T08:43:55;98778.63;;;18.30;100.00
41886;BME280;27567;43.084;25.616;2022-10-26T08:46:45;98776.03;;;18.35;100.00
41886;BME280;27567;43.084;25.616;2022-10-26T08:52:25;98783.09;;;18.36;100.00
41886;BME280;27567;43.084;25.616;2022-10-26T08:55:18;98780.75;;;18.40;100.00
41886;BME280;27567;43.084;25.616;2022-10-26T08:58:09;98784.91;;;18.59;100.00
41886;BME280;27567;43.084;25.616;2022-10-26T09:00:57;98796.34;;;18.78;100.00
41886;BME280;27567;43.084;25.616;2022-10-26T09:03:41;98782.47;;;18.46;100.00
41886;BME280;27567;43.084;25.616;2022-10-26T09:10:07;98788.16;;;18.44;100.00
41886;BME280;27567;43.084;25.616;2022-10-26T09:16:20;98784.94;;;18.76;100.00
41886;BME280;27567;43.084;25.616;2022-10-26T09:24:56;98783.13;;;18.82;100.00
41886;BME280;27567;43.084;25.616;2022-10-26T09:27:48;98787.34;;;18.90;100.00
41886;BME280;27567;43.084;25.616;2022-10-26T09:30:34;98775.28;;;18.98;100.00
41886;BME280;27567;43.084;25.616;2022-10-26T09:33:21;98782.94;;;19.01;100.00
41886;BME280;27567;43.084;25.616;2022-10-26T09:36:10;98787.41;;;18.78;100.00
41886;BME280;27567;43.084;25.616;2022-10-26T09:39:18;98784.53;;;18.85;100.00
41886;BME280;27567;43.084;25.616;2022-10-26T09:45:22;98788.94;;;19.03;100.00
41886;BME280;27567;43.084;25.616;2022-10-26T09:48:17;98776.56;;;19.29;100.00
41886;BME280;27567;43.084;25.616;2022-10-26T09:51:02;98783.03;;;19.79;99.84
41886;BME280;27567;43.084;25.616;2022-10-26T09:53:47;98773.97;;;20.40;94.62
41886;BME280;27567;43.084;25.616;2022-10-26T09:56:31;98767.31;;;22.73;72.22
41886;BME280;27567;43.084;25.616;2022-10-26T09:59:17;98763.72;;;23.71;60.20
41886;BME280;27567;43.084;25.616;2022-10-26T10:02:39;98765.56;;;26.09;48.19
41886;BME280;27567;43.084;25.616;2022-10-26T10:05:33;98764.91;;;27.13;44.02
41886;BME280;27567;43.084;25.616;2022-10-26T10:08:25;98761.25;;;27.51;41.98
41886;BME280;27567;43.084;25.616;2022-10-26T10:11:12;98753.81;;;27.94;40.43
41886;BME280;27567;43.084;25.616;2022-10-26T10:14:05;98763.28;;;28.01;39.97
41886;BME280;27567;43.084;25.616;2022-10-26T10:17:03;98747.53;;;28.44;36.42
41886;BME280;27567;43.084;25.616;2022-10-26T10:19:48;98754.56;;;28.87;36.22
41886;BME280;27567;43.084;25.616;2022-10-26T10:22:32;98749.72;;;28.19;37.45
41886;BME280;27567;43.084;25.616;2022-10-26T10:25:30;98742.91;;;27.74;38.75
41886;BME280;27567;43.084;25.616;2022-10-26T10:28:22;98736.72;;;30.46;33.76
41886;BME280;27567;43.084;25.616;2022-10-26T10:31:27;98744.53;;;27.62;38.16
41886;BME280;27567;43.084;25.616;2022-10-26T10:34:15;98736.88;;;27.58;38.05
41886;BME280;27567;43.084;25.616;2022-10-26T10:37:00;98742.53;;;27.34;37.86
41886;BME280;27567;43.084;25.616;2022-10-26T10:39:44;98751.16;;;28.02;36.47
41886;BME280;27567;43.084;25.616;2022-10-26T10:42:34;98729.16;;;32.12;30.54
41886;BME280;27567;43.084;25.616;2022-10-26T10:45:28;98722.13;;;35.33;26.04
41886;BME280;27567;43.084;25.616;2022-10-26T10:48:16;98734.28;;;31.14;29.20
41886;BME280;27567;43.084;25.616;2022-10-26T10:51:07;98720.84;;;29.84;31.49
41886;BME280;27567;43.084;25.616;2022-10-26T10:53:56;98720.06;;;31.72;29.14
41886;BME280;27567;43.084;25.616;2022-10-26T10:56:49;98714.88;;;33.19;26.95
41886;BME280;27567;43.084;25.616;2022-10-26T11:02:49;98729.84;;;30.17;29.79
41886;BME280;27567;43.084;25.616;2022-10-26T11:06:03;98723.63;;;28.16;32.68
41886;BME280;27567;43.084;25.616;2022-10-26T11:09:01;98724.69;;;28.66;32.14
41886;BME280;27567;43.084;25.616;2022-10-26T11:11:49;98711.16;;;29.24;31.23
41886;BME280;27567;43.084;25.616;2022-10-26T11:14:42;98712.50;;;30.60;29.39
41886;BME280;27567;43.084;25.616;2022-10-26T11:17:31;98702.34;;;32.16;27.33
41886;BME280;27567;43.084;25.616;2022-10-26T11:20:20;98714.06;;;29.59;30.14
41886;BME280;27567;43.084;25.616;2022-10-26T11:23:10;98726.88;;;27.63;33.07
41886;BME280;27567;43.084;25.616;2022-10-26T11:31:38;98716.31;;;28.34;31.42
41886;BME280;27567;43.084;25.616;2022-10-26T11:34:38;98711.56;;;28.12;31.82
41886;BME280;27567;43.084;25.616;2022-10-26T11:37:40;98709.50;;;30.04;29.05
41886;BME280;27567;43.084;25.616;2022-10-26T11:40:49;98706.94;;;31.52;27.33
41886;BME280;27567;43.084;25.616;2022-10-26T11:43:41;98713.47;;;30.29;27.51
41886;BME280;27567;43.084;25.616;2022-10-26T11:46:31;98702.25;;;30.61;27.04
41886;BME280;27567;43.084;25.616;2022-10-26T11:49:31;98717.41;;;29.38;28.41
41886;BME280;27567;43.084;25.616;2022-10-26T11:52:27;98706.22;;;28.30;29.63
41886;BME280;27567;43.084;25.616;2022-10-26T11:55:13;98701.00;;;29.42;28.69
41886;BME280;27567;43.084;25.616;2022-10-26T11:57:57;98691.25;;;29.36;28.48
41886;BME280;27567;43.084;25.616;2022-10-26T12:00:49;98693.63;;;30.36;27.20
41886;BME280;27567;43.084;25.616;2022-10-26T12:03:37;98696.31;;;29.43;27.85
41886;BME280;27567;43.084;25.616;2022-10-26T12:06:29;98700.69;;;29.44;27.92
41886;BME280;27567;43.084;25.616;2022-10-26T12:09:21;98695.09;;;30.42;26.75
41886;BME280;27567;43.084;25.616;2022-10-26T12:21:01;98702.91;;;30.66;26.35
41886;BME280;27567;43.084;25.616;2022-10-26T12:23:59;98701.19;;;29.95;27.15
41886;BME280;27567;43.084;25.616;2022-10-26T12:27:04;98699.63;;;30.38;26.68
41886;BME280;27567;43.084;25.616;2022-10-26T12:33:03;98691.03;;;34.99;22.09
41886;BME280;27567;43.084;25.616;2022-10-26T12:45:14;98700.50;;;29.80;27.07
41886;BME280;27567;43.084;25.616;2022-10-26T12:48:01;98698.47;;;30.12;26.17
41886;BME280;27567;43.084;25.616;2022-10-26T12:50:46;98702.44;;;29.80;27.11
41886;BME280;27567;43.084;25.616;2022-10-26T12:53:30;98696.44;;;28.83;28.61
41886;BME280;27567;43.084;25.616;2022-10-26T12:56:16;98701.22;;;30.04;27.20
41886;BME280;27567;43.084;25.616;2022-10-26T12:59:29;98710.16;;;29.51;27.89
41886;BME280;27567;43.084;25.616;2022-10-26T13:05:31;98716.50;;;24.55;35.26
41886;BME280;27567;43.084;25.616;2022-10-26T13:08:18;98708.53;;;23.33;39.60
41886;BME280;27567;43.084;25.616;2022-10-26T13:11:15;98711.56;;;22.85;42.92
41886;BME280;27567;43.084;25.616;2022-10-26T13:14:04;98711.81;;;22.47;45.01
41886;BME280;27567;43.084;25.616;2022-10-26T13:16:50;98715.63;;;22.46;46.73
41886;BME280;27567;43.084;25.616;2022-10-26T13:19:42;98722.03;;;21.98;48.67
41886;BME280;27567;43.084;25.616;2022-10-26T13:22:28;98719.91;;;21.57;50.82
41886;BME280;27567;43.084;25.616;2022-10-26T13:25:23;98714.56;;;21.30;54.13
41886;BME280;27567;43.084;25.616;2022-10-26T13:28:42;98729.44;;;21.12;56.36
41886;BME280;27567;43.084;25.616;2022-10-26T13:34:22;98713.78;;;20.97;60.81
41886;BME280;27567;43.084;25.616;2022-10-26T13:37:21;98722.78;;;20.97;58.82
41886;BME280;27567;43.084;25.616;2022-10-26T13:40:07;98711.00;;;20.86;60.04
41886;BME280;27567;43.084;25.616;2022-10-26T13:43:02;98718.00;;;20.77;60.75
41886;BME280;27567;43.084;25.616;2022-10-26T13:46:01;98723.69;;;20.76;61.33
41886;BME280;27567;43.084;25.616;2022-10-26T13:48:46;98716.84;;;20.73;58.79
41886;BME280;27567;43.084;25.616;2022-10-26T13:51:46;98711.25;;;20.57;60.29
41886;BME280;27567;43.084;25.616;2022-10-26T13:54:42;98729.69;;;20.50;61.75
41886;BME280;27567;43.084;25.616;2022-10-26T13:57:34;98723.94;;;20.47;60.92
41886;BME280;27567;43.084;25.616;2022-10-26T14:00:21;98730.94;;;20.37;60.81
41886;BME280;27567;43.084;25.616;2022-10-26T14:03:12;98728.13;;;20.27;63.26
41886;BME280;27567;43.084;25.616;2022-10-26T14:05:57;98731.66;;;20.27;62.40
41886;BME280;27567;43.084;25.616;2022-10-26T14:08:42;98731.97;;;20.31;63.63
41886;BME280;27567;43.084;25.616;2022-10-26T14:11:35;98730.28;;;20.25;65.43
41886;BME280;27567;43.084;25.616;2022-10-26T14:14:25;98730.97;;;20.15;66.89
41886;BME280;27567;43.084;25.616;2022-10-26T14:17:23;98742.06;;;20.08;71.63
41886;BME280;27567;43.084;25.616;2022-10-26T14:20:17;98747.66;;;19.96;68.54
41886;BME280;27567;43.084;25.616;2022-10-26T14:23:02;98747.00;;;19.89;69.92
41886;BME280;27567;43.084;25.616;2022-10-26T14:25:52;98747.97;;;19.83;71.25
41886;BME280;27567;43.084;25.616;2022-10-26T14:28:44;98738.28;;;19.70;72.26
41886;BME280;27567;43.084;25.616;2022-10-26T14:31:32;98744.56;;;19.71;71.55
41886;BME280;27567;43.084;25.616;2022-10-26T14:34:18;98744.72;;;19.64;71.83
41886;BME280;27567;43.084;25.616;2022-10-26T14:37:03;98747.63;;;19.57;73.09
41886;BME280;27567;43.084;25.616;2022-10-26T14:39:47;98741.56;;;19.50;73.44
41886;BME280;27567;43.084;25.616;2022-10-26T14:42:37;98745.28;;;19.44;74.93
41886;BME280;27567;43.084;25.616;2022-10-26T14:45:37;98754.59;;;19.31;75.76
41886;BME280;27567;43.084;25.616;2022-10-26T14:48:33;98762.34;;;19.22;76.57
41886;BME280;27567;43.084;25.616;2022-10-26T14:51:20;98757.41;;;19.02;78.98
41886;BME280;27567;43.084;25.616;2022-10-26T14:54:19;98746.66;;;18.78;81.85
41886;BME280;27567;43.084;25.616;2022-10-26T14:57:03;98762.13;;;18.60;84.57
41886;BME280;27567;43.084;25.616;2022-10-26T15:00:14;98766.38;;;18.56;85.77
41886;BME280;27567;43.084;25.616;2022-10-26T15:02:58;98762.28;;;18.42;88.64
41886;BME280;27567;43.084;25.616;2022-10-26T15:05:43;98762.72;;;18.33;89.90
41886;BME280;27567;43.084;25.616;2022-10-26T15:08:41;98761.00;;;18.15;91.97
41886;BME280;27567;43.084;25.616;2022-10-26T15:11:27;98766.78;;;18.07;93.55
41886;BME280;27567;43.084;25.616;2022-10-26T15:14:14;98776.72;;;17.90;95.29
41886;BME280;27567;43.084;25.616;2022-10-26T15:16:59;98775.44;;;17.80;96.76
41886;BME280;27567;43.084;25.616;2022-10-26T15:19:44;98777.94;;;17.70;98.08
41886;BME280;27567;43.084;25.616;2022-10-26T15:22:28;98780.97;;;17.62;99.88
41886;BME280;27567;43.084;25.616;2022-10-26T15:25:17;98788.91;;;17.51;100.00
41886;BME280;27567;43.084;25.616;2022-10-26T15:28:17;98793.84;;;17.42;100.00
41886;BME280;27567;43.084;25.616;2022-10-26T15:36:37;98804.06;;;17.05;100.00
41886;BME280;27567;43.084;25.616;2022-10-26T15:39:21;98805.66;;;16.94;100.00
41886;BME280;27567;43.084;25.616;2022-10-26T15:42:11;98808.44;;;16.87;100.00
41886;BME280;27567;43.084;25.616;2022-10-26T15:44:58;98815.84;;;16.80;100.00
41886;BME280;27567;43.084;25.616;2022-10-26T15:47:42;98825.00;;;16.67;100.00
41886;BME280;27567;43.084;25.616;2022-10-26T15:50:27;98815.63;;;16.51;100.00
41886;BME280;27567;43.084;25.616;2022-10-26T15:53:23;98823.25;;;16.23;100.00
41886;BME280;27567;43.084;25.616;2022-10-26T15:56:14;98822.66;;;16.03;100.00
41886;BME280;27567;43.084;25.616;2022-10-26T15:58:58;98827.59;;;15.87;100.00
41886;BME280;27567;43.084;25.616;2022-10-26T16:01:42;98828.66;;;15.86;100.00
41886;BME280;27567;43.084;25.616;2022-10-26T16:04:27;98825.75;;;15.81;100.00
41886;BME280;27567;43.084;25.616;2022-10-26T16:07:14;98834.31;;;15.78;100.00
41886;BME280;27567;43.084;25.616;2022-10-26T16:09:59;98838.47;;;15.81;100.00
41886;BME280;27567;43.084;25.616;2022-10-26T16:12:43;98842.22;;;15.80;100.00
41886;BME280;27567;43.084;25.616;2022-10-26T16:15:27;98839.28;;;15.81;100.00
41886;BME280;27567;43.084;25.616;2022-10-26T16:18:11;98843.78;;;15.69;100.00
41886;BME280;27567;43.084;25.616;2022-10-26T16:20:56;98846.31;;;15.63;100.00
41886;BME280;27567;43.084;25.616;2022-10-26T16:23:40;98856.06;;;15.65;100.00
41886;BME280;27567;43.084;25.616;2022-10-26T16:26:24;98860.66;;;15.64;100.00
41886;BME280;27567;43.084;25.616;2022-10-26T16:29:08;98855.00;;;15.47;100.00
41886;BME280;27567;43.084;25.616;2022-10-26T16:31:52;98867.94;;;15.38;100.00
41886;BME280;27567;43.084;25.616;2022-10-26T16:34:36;98860.00;;;15.43;100.00